Quata, Brazil
Current Conditions -  °F | °C
As of 5:00 AM on Saturday 29 Nov 2014 (Local Time) from SBDN Reporting Station
Clear Clear  
Wind Chill: 70°   Ceiling: Unl
Heat Index: 70°   Visibility: 6mi
Dew Point: 61°   Wind: 13mph
Humidity: 73%   Direction: 120°ESE
Pressure: 29.94"   Gusts: NA
Location:  22.25°S, 50.7°W
Report Text: SBDN 290700Z 12011KT CAVOK 21/16 Q1014
Loading
Personal Weather Stations






























Interactive Weather Map New forecast layout! Learn more

10-Day Weather Forecast

Advertisements
Track Severe Weather on mobile